Latest Weather Observations for Low Rocky Point

IDT60801

Issued at 5:05 pm EDT Saturday 25 October 2014 (issued every 30 minutes, with the page automatically refreshed every 10 minutes)

About weather observations | Map of weather stations | Latest weather observations for TAS | Other Formats
Station Details ID: 097080 Name: LOW ROCKY POINT Lat: -42.98 Lon: 145.50 Height: 34.0 m
Data from the previous 72 hours. | See also: Recent months at Low Rocky Point
Date/Time
EDT
Temp
°C
App
Temp
°C
Dew
Point
Rel
Hum
%
Delta-T
°C
Wind Press
QNH
hPa
Press
MSL
hPa
Rain
since 9 am
mm
Dir
 
Spd
km/h
Gust
km/h
Spd
kts
Gust
kts
25/05:00pm 13.7 7.8 7.7 67 3.0 S 28 37 15 20 1016.6 1016.6 0.0
25/04:30pm 14.0 9.0 8.0 67 3.0 S 24 35 13 19 1016.6 1016.6 0.0
25/04:00pm 14.8 9.9 8.5 66 3.2 S 24 32 13 17 1016.6 1016.6 0.0
25/03:30pm 15.5 11.2 9.4 67 3.2 S 22 30 12 16 1017.1 1017.1 0.0
25/03:00pm 15.6 11.8 9.9 69 3.0 SSE 20 26 11 14 1016.9 1016.9 0.0
25/02:30pm 15.4 11.5 9.3 67 3.1 SSE 20 26 11 14 1017.4 1017.4 0.0
25/02:00pm 16.0 12.6 11.2 73 2.6 SSE 20 28 11 15 1017.4 1017.4 0.0
25/01:30pm 15.1 12.0 11.7 80 1.8 SSE 19 24 10 13 1017.5 1017.5 0.0
25/01:00pm 14.4 12.5 11.7 84 1.4 S 13 20 7 11 1017.7 1017.7 0.0
25/12:30pm 14.4 12.1 11.6 83 1.5 S 15 19 8 10 1017.9 1017.9 0.0
25/12:00pm 14.4 12.8 11.7 84 1.4 W 11 15 6 8 1018.0 1018.0 0.0
25/11:30am 13.3 11.1 10.8 85 1.3 WSW 13 19 7 10 1018.1 1018.1 0.0
25/11:00am 12.6 11.0 10.1 85 1.3 W 9 13 5 7 1018.2 1018.2 0.0
25/10:30am 12.6 11.0 10.1 85 1.3 WSW 9 13 5 7 1018.0 1018.0 0.0
25/10:00am 13.5 11.3 10.9 84 1.4 WNW 13 15 7 8 1017.6 1017.6 0.0
25/09:30am 12.1 10.4 9.8 86 1.2 W 9 15 5 8 1017.4 1017.4 0.0
25/09:00am 12.0 9.4 9.4 84 1.3 SSW 13 20 7 11 1017.1 1017.1 0.0
25/08:30am 11.8 9.5 9.0 83 1.4 S 11 15 6 8 1017.0 1017.0 0.0
25/08:00am 11.6 8.6 9.2 85 1.2 WSW 15 22 8 12 1016.3 1016.2 0.0
25/07:30am 11.6 8.6 9.3 86 1.2 WSW 15 20 8 11 1016.1 1016.1 0.0
25/07:00am 11.3 7.6 9.4 88 1.0 W 19 20 10 11 1015.7 1015.6 0.0
25/06:30am 11.7 8.0 10.1 90 0.8 SW 20 28 11 15 1015.1 1015.2 0.0
25/06:00am 12.0 8.4 10.6 91 0.7 SW 20 26 11 14 1014.2 1014.2 0.0
25/05:30am 12.2 10.4 10.9 92 0.7 SW 11 15 6 8 1013.8 1013.9 0.0
25/05:00am 12.1 8.9 11.2 94 0.5 SW 19 26 10 14 1013.4 1013.4 0.0
25/04:30am 12.4 9.3 11.6 95 0.4 WSW 19 28 10 15 1013.2 1013.3 0.0
25/04:00am 12.4 8.8 11.9 97 0.3 SW 22 32 12 17 1013.3 1013.3 0.0
25/03:30am 12.6 9.5 12.3 98 0.2 WSW 20 28 11 15 1012.9 1013.0 0.0
25/03:00am 12.7 9.3 12.5 99 0.1 WSW 22 30 12 16 1012.6 1012.6 0.0
25/02:30am 12.6 8.8 12.4 99 0.1 W 24 28 13 15 1012.2 1012.3 0.0
25/02:00am 12.9 9.6 12.7 99 0.1 W 22 26 12 14 1011.9 1011.9 0.0
25/01:30am 13.1 9.8 12.9 99 0.1 W 22 30 12 16 1011.9 1012.0 0.0
25/01:00am 13.2 9.2 13.0 99 0.1 W 26 32 14 17 1011.7 1011.7 0.0
25/12:30am 13.3 9.0 13.1 99 0.1 W 28 33 15 18 1011.5 1011.6 0.0
25/12:00am 13.3 9.3 13.0 98 0.2 W 26 30 14 16 1011.2 1011.3 0.0
 
Date/Time
EDT
Temp
°C
App
Temp
°C
Dew
Point
Rel
Hum
%
Delta-T
°C
Wind Press
QNH
hPa
Press
MSL
hPa
Rain
since 9 am
mm
Dir
 
Spd
km/h
Gust
km/h
Spd
kts
Gust
kts
24/11:30pm 13.3 8.9 12.8 97 0.3 W 28 35 15 19 1010.9 1011.0 0.0
24/11:00pm 13.5 9.4 12.6 94 0.5 WNW 26 32 14 17 1010.6 1010.6 0.0
24/10:30pm 14.2 11.2 12.4 89 1.0 NW 20 26 11 14 1010.4 1010.5 0.0
24/10:00pm 14.4 10.5 12.1 86 1.2 NW 24 28 13 15 1010.2 1010.2 0.0
24/09:30pm 14.6 11.9 11.6 82 1.6 NW 17 20 9 11 1009.9 1009.9 0.0
24/09:00pm 14.3 11.9 11.5 83 1.5 NNW 15 20 8 11 1009.3 1009.3 0.0
24/08:30pm 14.2 11.7 11.0 81 1.7 NNW 15 17 8 9 1009.3 1009.3 0.0
24/08:00pm 14.4 12.1 10.6 78 2.0 NNW 13 17 7 9 1009.2 1009.2 0.0
24/07:30pm 14.0 12.8 10.2 78 2.0 WNW 7 9 4 5 1009.1 1009.1 0.0
24/07:00pm 14.2 13.0 10.2 77 2.1 WSW 7 11 4 6 1008.8 1008.8 0.0
24/06:30pm 14.5 12.2 10.3 76 2.2 WSW 13 20 7 11 1008.6 1008.6 0.0
24/06:00pm 16.8 16.6 11.9 73 2.7 WNW 4 9 2 5 1007.6 1007.6 0.0
24/05:30pm 14.3 11.3 10.5 78 2.0 ESE 17 22 9 12 1006.7 1006.7 0.0
24/05:00pm 14.6 11.0 10.6 77 2.1 E 20 26 11 14 1007.8 1007.8 0.0
24/04:30pm 15.3 13.1 10.9 75 2.3 ESE 13 17 7 9 1009.4 1009.4 0.0
24/04:00pm 15.0 13.1 10.4 74 2.4 SSE 11 13 6 7 1009.8 1009.8 0.0
24/03:30pm 15.1 13.1 10.1 72 2.6 SSE 11 15 6 8 1009.6 1009.6 0.0
24/03:00pm 17.1 14.5 10.7 66 3.4 SSE 15 20 8 11 1009.7 1009.7 0.0
24/02:30pm 18.1 14.7 10.5 61 4.1 S 19 22 10 12 1009.8 1009.8 0.0
24/02:00pm 17.6 14.2 10.5 63 3.8 SSW 19 30 10 16 1010.4 1010.4 0.0
24/01:30pm 18.1 14.5 10.5 61 4.1 SW 20 26 11 14 1010.4 1010.5 0.0
24/01:00pm 17.4 14.6 11.4 68 3.3 SSW 17 24 9 13 1010.8 1010.8 0.0
24/12:30pm 18.1 15.8 11.7 66 3.5 SSW 15 20 8 11 1011.4 1011.5 0.0
24/12:00pm 17.4 15.1 11.7 69 3.1 SSW 15 20 8 11 1012.2 1012.2 0.0
24/11:30am 16.5 14.6 11.9 74 2.5 SSW 13 15 7 8 1012.9 1013.0 0.0
24/11:00am 14.8 12.5 10.4 75 2.3 W 13 15 7 8 1013.8 1013.8 0.0
24/10:30am 14.8 12.6 9.4 70 2.8 WNW 11 13 6 7 1014.1 1014.2 0.0
24/10:00am 14.6 10.7 8.8 68 2.9 NW 19 20 10 11 1014.9 1014.9 0.0
24/09:30am 13.7 9.5 7.5 66 3.0 NW 19 20 10 11 1014.9 1015.0 0.0
24/09:00am 13.9 10.0 7.0 63 3.4 NNW 17 19 9 10 1015.3 1015.3 0.0
24/08:30am 12.9 8.4 6.0 63 3.3 NNE 19 24 10 13 1015.4 1015.5 0.0
24/08:00am 11.6 7.5 6.1 69 2.6 NE 17 20 9 11 1015.6 1015.5 0.0
24/07:30am 10.3 5.7 5.5 72 2.2 NNE 19 26 10 14 1015.9 1015.9 0.0
24/07:00am 8.8 4.0 4.4 74 1.9 NE 19 22 10 12 1016.1 1016.0 0.0
24/06:30am 8.0 2.9 4.2 77 1.7 NNE 20 24 11 13 1016.4 1016.4 0.0
24/06:00am 8.0 4.5 3.7 74 1.8 N 11 15 6 8 1016.5 1016.5 0.0
24/05:30am 8.7 4.6 4.3 74 1.9 NE 15 17 8 9 1016.4 1016.4 0.0
24/05:00am 9.0 4.5 4.2 72 2.1 NE 17 20 9 11 1016.6 1016.6 0.0
24/04:30am 9.5 4.1 4.7 72 2.1 NE 22 28 12 15 1017.4 1017.4 0.0
24/04:00am 9.9 4.6 4.9 71 2.2 NNE 22 26 12 14 1018.0 1018.0 0.0
24/03:30am 10.1 4.8 5.1 71 2.3 NNE 22 26 12 14 1018.6 1018.6 0.0
24/03:00am 10.0 5.2 5.6 74 2.0 NNE 20 24 11 13 1019.1 1019.1 0.0
24/02:30am 10.6 7.6 5.8 72 2.2 N 11 20 6 11 1019.3 1019.3 0.0
24/02:00am 11.2 6.6 6.5 73 2.2 NE 20 24 11 13 1019.8 1019.8 0.0
24/01:30am 11.5 6.8 7.6 77 1.9 NNE 22 26 12 14 1020.0 1020.0 0.0
24/01:00am 11.5 6.5 8.2 80 1.6 NNE 24 28 13 15 1020.2 1020.2 0.0
24/12:30am 11.7 7.5 8.2 79 1.7 NNE 20 24 11 13 1020.7 1020.7 0.0
24/12:00am 11.9 7.4 8.4 79 1.7 NNE 22 28 12 15 1020.8 1020.8 0.0
 
Date/Time
EDT
Temp
°C
App
Temp
°C
Dew
Point
Rel
Hum
%
Delta-T
°C
Wind Press
QNH
hPa
Press
MSL
hPa
Rain
since 9 am
mm
Dir
 
Spd
km/h
Gust
km/h
Spd
kts
Gust
kts
23/11:30pm 12.2 7.6 8.1 76 2.0 N 22 28 12 15 1021.1 1021.1 0.0
23/11:00pm 13.1 9.0 8.6 74 2.2 N 20 26 11 14 1021.0 1021.0 0.0
23/10:30pm 12.6 8.2 8.9 78 1.9 N 22 28 12 15 1021.0 1021.0 0.0
23/10:00pm 10.8 7.1 7.9 82 1.4 N 17 20 9 11 1021.0 1021.0 0.0
23/09:30pm 11.4 7.8 8.4 82 1.5 NNW 17 20 9 11 1020.9 1020.9 0.0
23/09:00pm 11.1 7.8 8.0 81 1.5 N 15 17 8 9 1020.7 1020.7 0.0
23/08:30pm 11.4 9.2 7.9 79 1.7 NE 9 13 5 7 1020.5 1020.5 0.0
23/08:00pm 12.6 12.0 8.9 78 1.9 NNE 2 9 1 5 1020.6 1020.6 0.0
23/07:30pm 13.1 11.2 9.2 77 2.0 ENE 9 13 5 7 1020.7 1020.7 0.0
23/07:00pm 13.8 8.8 9.6 76 2.1 SE 26 33 14 18 1020.0 1020.0 0.0
23/06:30pm 13.7 6.9 9.4 75 2.2 SSE 35 44 19 24 1020.1 1020.1 0.0
23/06:00pm 13.9 6.3 9.1 73 2.4 SSE 39 50 21 27 1020.4 1020.4 0.0
23/05:30pm 14.2 6.6 9.2 72 2.6 SSE 39 50 21 27 1020.7 1020.7 0.0
23/05:00pm 14.5 6.5 9.1 70 2.7 SSE 41 52 22 28 1020.9 1020.9 0.0
23/04:30pm 14.8 7.7 9.4 70 2.8 SSE 37 48 20 26 1021.0 1021.0 0.0
23/04:00pm 15.0 7.9 9.4 69 2.9 SSE 37 48 20 26 1021.2 1021.2 0.0
23/03:30pm 15.4 8.2 9.3 67 3.1 SSE 37 46 20 25 1021.3 1021.3 0.0
23/03:00pm 15.8 9.4 9.5 66 3.3 SSE 33 43 18 23 1021.4 1021.4 0.0
23/02:30pm 15.3 8.0 8.8 65 3.3 SSE 37 50 20 27 1021.7 1021.7 0.0
23/02:00pm 15.7 8.6 9.4 66 3.2 SSE 37 50 20 27 1021.9 1021.9 0.0
23/01:30pm 15.1 7.7 8.3 64 3.4 SSE 37 48 20 26 1022.1 1022.1 0.0
23/01:00pm 15.0 7.6 8.3 64 3.4 SSE 37 48 20 26 1022.5 1022.5 0.0
23/12:30pm 15.0 7.2 8.3 64 3.4 SSE 39 50 21 27 1022.9 1022.9 0.0
23/12:00pm 14.6 7.0 7.4 62 3.5 SSE 37 46 20 25 1023.3 1023.3 0.0
23/11:30am 14.7 7.8 7.3 61 3.6 SSE 33 43 18 23 1023.7 1023.7 0.0
23/11:00am 14.4 7.5 7.2 62 3.5 SSE 33 43 18 23 1024.0 1024.0 0.0
23/10:30am 13.9 7.0 6.5 61 3.6 SSE 32 39 17 21 1024.2 1024.2 0.0
23/10:00am 13.5 7.2 7.3 66 3.0 SE 30 37 16 20 1024.3 1024.3 0.0
23/09:30am 12.9 6.5 6.9 67 2.9 SE 30 39 16 21 1024.3 1024.3 0.0
23/09:00am 12.4 5.9 6.7 68 2.7 SE 30 41 16 22 1024.3 1024.3 0.4
23/08:30am 11.7 4.2 6.4 70 2.5 SE 35 46 19 25 1024.3 1024.3 0.4
23/08:00am 11.5 4.4 6.2 70 2.5 SE 33 44 18 24 1024.2 1024.2 0.4
23/07:30am 10.9 3.3 5.9 71 2.3 SE 35 44 19 24 1024.1 1024.1 0.4
23/07:00am 10.2 2.9 5.6 73 2.1 SE 33 43 18 23 1023.7 1023.7 0.4
23/06:30am 10.1 2.8 5.5 73 2.1 SE 33 43 18 23 1023.5 1023.5 0.4
23/06:00am 10.3 3.1 6.1 75 1.9 SE 33 44 18 24 1023.2 1023.2 0.4
23/05:30am 10.6 4.1 6.4 75 2.0 SE 30 37 16 20 1023.0 1023.0 0.4
23/05:00am 10.3 3.4 6.3 76 1.9 SE 32 43 17 23 1022.6 1022.6 0.4
23/04:30am 10.6 3.7 6.6 76 1.9 SE 32 41 17 22 1022.4 1022.4 0.4
23/04:00am 10.6 4.2 6.9 78 1.7 SE 30 41 16 22 1022.2 1022.2 0.4
23/03:30am 10.7 4.0 7.2 79 1.7 SE 32 43 17 23 1022.1 1022.1 0.4
23/03:00am 10.9 3.4 7.8 81 1.5 SE 37 48 20 26 1022.1 1022.1 0.4
23/02:30am 10.7 2.9 8.1 84 1.3 SE 39 50 21 27 1022.1 1022.1 0.4
23/02:00am 10.7 3.4 8.6 87 1.0 SE 37 50 20 27 1022.3 1022.3 0.4
23/01:30am 10.8 3.6 9.2 90 0.8 SSE 37 50 20 27 1022.3 1022.3 0.4
23/01:00am 10.7 3.6 9.5 92 0.6 SSE 37 46 20 25 1022.2 1022.2 0.4
23/12:30am 10.8 4.2 10.0 95 0.4 SSE 35 46 19 25 1022.1 1022.1 0.4
23/12:00am 10.9 3.2 10.3 96 0.3 SSE 41 54 22 29 1021.8 1021.8 0.4
 
Date/Time
EDT
Temp
°C
App
Temp
°C
Dew
Point
Rel
Hum
%
Delta-T
°C
Wind Press
QNH
hPa
Press
MSL
hPa
Rain
since 9 am
mm
Dir
 
Spd
km/h
Gust
km/h
Spd
kts
Gust
kts
22/11:30pm 11.0 3.8 10.5 97 0.3 S 39 56 21 30 1021.8 1021.8 0.2
22/11:00pm 11.5 4.4 10.9 96 0.3 S 39 50 21 27 1021.4 1021.4 0.2
22/10:30pm 12.4 7.6 11.5 94 0.5 S 28 35 15 19 1021.0 1021.0 0.0
22/10:00pm 12.7 8.3 11.6 93 0.6 SSE 26 33 14 18 1020.6 1020.6 0.0
22/09:30pm 12.7 7.9 11.8 94 0.5 S 28 35 15 19 1020.2 1020.2 0.0
22/09:00pm 12.7 8.3 11.8 94 0.5 S 26 32 14 17 1020.0 1020.0 0.0
22/08:30pm 12.6 8.6 11.8 95 0.4 S 24 30 13 16 1019.6 1019.6 0.0
22/08:00pm 12.8 9.9 12.2 96 0.3 S 19 26 10 14 1019.3 1019.3 0.0
22/07:30pm 12.8 10.6 12.2 96 0.3 S 15 20 8 11 1018.8 1018.8 0.0
22/07:00pm 12.9 9.9 12.1 95 0.4 SW 19 24 10 13 1018.3 1018.3 0.0
22/06:30pm 13.1 10.2 12.2 94 0.5 W 19 24 10 13 1017.9 1017.9 0.0
22/06:00pm 13.3 10.7 12.0 92 0.7 WNW 17 20 9 11 1017.6 1017.6 0.0
22/05:30pm 13.6 10.4 12.0 90 0.9 WNW 20 26 11 14 1017.3 1017.3 0.0

Other Formats:

Comma delimited format used in spreadsheet applications
http://www.bom.gov.au/fwo/IDT60801/IDT60801.95961.axf

JavaScript Object Notation format (JSON) in row-major order
http://www.bom.gov.au/fwo/IDT60801/IDT60801.95961.json